sensor_id;sensor_type;location;lat;lon;timestamp;pressure;altitude;pressure_sealevel;temperature;humidity
11001;BME280;5553;48.506;8.870;2022-08-23T00:04:09;96429.38;;;13.98;100.00
11001;BME280;5553;48.506;8.870;2022-08-23T00:06:38;96433.13;;;13.90;100.00
11001;BME280;5553;48.506;8.870;2022-08-23T00:09:07;96427.63;;;13.92;100.00
11001;BME280;5553;48.506;8.870;2022-08-23T00:11:42;96431.19;;;13.72;100.00
11001;BME280;5553;48.506;8.870;2022-08-23T00:14:14;96423.53;;;13.58;100.00
11001;BME280;5553;48.506;8.870;2022-08-23T00:16:42;96418.88;;;13.46;100.00
11001;BME280;5553;48.506;8.870;2022-08-23T00:19:13;96428.44;;;13.54;100.00
11001;BME280;5553;48.506;8.870;2022-08-23T00:21:42;96424.94;;;13.60;100.00
11001;BME280;5553;48.506;8.870;2022-08-23T00:24:12;96431.09;;;13.54;100.00
11001;BME280;5553;48.506;8.870;2022-08-23T00:26:51;96429.28;;;13.48;100.00
11001;BME280;5553;48.506;8.870;2022-08-23T00:29:20;96430.13;;;13.42;100.00
11001;BME280;5553;48.506;8.870;2022-08-23T00:31:50;96425.69;;;13.29;100.00
11001;BME280;5553;48.506;8.870;2022-08-23T00:34:19;96439.78;;;13.16;100.00
11001;BME280;5553;48.506;8.870;2022-08-23T00:36:48;96437.56;;;13.13;100.00
11001;BME280;5553;48.506;8.870;2022-08-23T00:39:17;96430.69;;;12.92;100.00
11001;BME280;5553;48.506;8.870;2022-08-23T00:41:49;96438.00;;;13.03;100.00
11001;BME280;5553;48.506;8.870;2022-08-23T00:44:22;96433.34;;;12.92;100.00
11001;BME280;5553;48.506;8.870;2022-08-23T00:47:05;96424.94;;;13.02;100.00
11001;BME280;5553;48.506;8.870;2022-08-23T00:49:50;96428.84;;;12.99;100.00
11001;BME280;5553;48.506;8.870;2022-08-23T00:52:25;96429.03;;;12.98;100.00
11001;BME280;5553;48.506;8.870;2022-08-23T00:54:55;96424.16;;;12.95;100.00
11001;BME280;5553;48.506;8.870;2022-08-23T00:57:26;96428.66;;;12.88;100.00
11001;BME280;5553;48.506;8.870;2022-08-23T00:59:54;96429.47;;;12.81;100.00
11001;BME280;5553;48.506;8.870;2022-08-23T01:02:23;96432.53;;;12.78;100.00
11001;BME280;5553;48.506;8.870;2022-08-23T01:04:55;96431.94;;;12.83;100.00
11001;BME280;5553;48.506;8.870;2022-08-23T01:07:32;96429.28;;;12.90;100.00
11001;BME280;5553;48.506;8.870;2022-08-23T01:10:08;96432.50;;;12.92;100.00
11001;BME280;5553;48.506;8.870;2022-08-23T01:12:43;96436.41;;;12.83;100.00
11001;BME280;5553;48.506;8.870;2022-08-23T01:15:20;96441.06;;;12.94;100.00
11001;BME280;5553;48.506;8.870;2022-08-23T01:17:54;96438.22;;;12.89;100.00
11001;BME280;5553;48.506;8.870;2022-08-23T01:20:24;96442.28;;;12.98;100.00
11001;BME280;5553;48.506;8.870;2022-08-23T01:22:59;96437.59;;;13.00;100.00
11001;BME280;5553;48.506;8.870;2022-08-23T01:25:32;96428.69;;;12.74;100.00
11001;BME280;5553;48.506;8.870;2022-08-23T01:28:02;96436.03;;;12.59;100.00
11001;BME280;5553;48.506;8.870;2022-08-23T01:30:32;96445.41;;;12.62;100.00
11001;BME280;5553;48.506;8.870;2022-08-23T01:33:05;96439.91;;;12.63;100.00
11001;BME280;5553;48.506;8.870;2022-08-23T01:35:37;96442.16;;;12.53;100.00
11001;BME280;5553;48.506;8.870;2022-08-23T01:38:07;96444.41;;;12.56;100.00
11001;BME280;5553;48.506;8.870;2022-08-23T01:40:39;96444.59;;;12.54;100.00
11001;BME280;5553;48.506;8.870;2022-08-23T01:43:09;96440.53;;;12.45;100.00
11001;BME280;5553;48.506;8.870;2022-08-23T01:45:38;96458.25;;;12.45;100.00
11001;BME280;5553;48.506;8.870;2022-08-23T01:48:06;96468.00;;;12.51;100.00
11001;BME280;5553;48.506;8.870;2022-08-23T01:50:35;96452.34;;;12.56;100.00
11001;BME280;5553;48.506;8.870;2022-08-23T01:53:04;96455.59;;;12.45;100.00
11001;BME280;5553;48.506;8.870;2022-08-23T01:55:33;96451.94;;;12.46;100.00
11001;BME280;5553;48.506;8.870;2022-08-23T01:58:04;96451.31;;;12.44;100.00
11001;BME280;5553;48.506;8.870;2022-08-23T02:00:36;96448.66;;;12.44;100.00
11001;BME280;5553;48.506;8.870;2022-08-23T02:03:06;96455.78;;;12.30;100.00
11001;BME280;5553;48.506;8.870;2022-08-23T02:05:37;96459.69;;;12.27;100.00
11001;BME280;5553;48.506;8.870;2022-08-23T02:08:07;96459.25;;;12.30;100.00
11001;BME280;5553;48.506;8.870;2022-08-23T02:10:48;96457.03;;;12.27;100.00
11001;BME280;5553;48.506;8.870;2022-08-23T02:13:19;96457.22;;;12.32;100.00
11001;BME280;5553;48.506;8.870;2022-08-23T02:15:48;96455.78;;;12.10;100.00
11001;BME280;5553;48.506;8.870;2022-08-23T02:18:17;96466.56;;;12.08;100.00
11001;BME280;5553;48.506;8.870;2022-08-23T02:20:48;96462.50;;;12.06;100.00
11001;BME280;5553;48.506;8.870;2022-08-23T02:23:18;96468.16;;;11.90;100.00
11001;BME280;5553;48.506;8.870;2022-08-23T02:25:47;96472.56;;;11.82;100.00
11001;BME280;5553;48.506;8.870;2022-08-23T02:28:16;96473.03;;;11.93;100.00
11001;BME280;5553;48.506;8.870;2022-08-23T02:30:47;96481.19;;;11.91;100.00
11001;BME280;5553;48.506;8.870;2022-08-23T02:33:16;96472.63;;;11.96;100.00
11001;BME280;5553;48.506;8.870;2022-08-23T02:35:44;96474.09;;;12.05;100.00
11001;BME280;5553;48.506;8.870;2022-08-23T02:38:13;96479.97;;;11.94;100.00
11001;BME280;5553;48.506;8.870;2022-08-23T02:40:43;96476.50;;;12.00;100.00
11001;BME280;5553;48.506;8.870;2022-08-23T02:43:11;96480.56;;;11.89;100.00
11001;BME280;5553;48.506;8.870;2022-08-23T02:45:40;96480.50;;;11.82;100.00
11001;BME280;5553;48.506;8.870;2022-08-23T02:48:11;96474.47;;;11.89;100.00
11001;BME280;5553;48.506;8.870;2022-08-23T02:50:39;96483.53;;;11.79;100.00
11001;BME280;5553;48.506;8.870;2022-08-23T02:53:07;96485.66;;;11.91;100.00
11001;BME280;5553;48.506;8.870;2022-08-23T02:55:35;96485.25;;;11.87;100.00
11001;BME280;5553;48.506;8.870;2022-08-23T02:58:04;96481.13;;;11.78;100.00
11001;BME280;5553;48.506;8.870;2022-08-23T03:00:32;96485.59;;;11.77;100.00
11001;BME280;5553;48.506;8.870;2022-08-23T03:03:03;96490.28;;;11.82;100.00
11001;BME280;5553;48.506;8.870;2022-08-23T03:05:34;96489.47;;;11.81;100.00
11001;BME280;5553;48.506;8.870;2022-08-23T03:08:03;96496.56;;;11.74;100.00
11001;BME280;5553;48.506;8.870;2022-08-23T03:10:31;96499.41;;;11.73;100.00
11001;BME280;5553;48.506;8.870;2022-08-23T03:13:00;96507.09;;;11.61;100.00
11001;BME280;5553;48.506;8.870;2022-08-23T03:15:29;96512.38;;;11.61;100.00
11001;BME280;5553;48.506;8.870;2022-08-23T03:17:57;96515.84;;;11.68;100.00
11001;BME280;5553;48.506;8.870;2022-08-23T03:20:26;96517.66;;;11.61;100.00
11001;BME280;5553;48.506;8.870;2022-08-23T03:22:57;96520.47;;;11.53;100.00
11001;BME280;5553;48.506;8.870;2022-08-23T03:25:25;96521.00;;;11.42;100.00
11001;BME280;5553;48.506;8.870;2022-08-23T03:27:53;96516.47;;;11.70;100.00
11001;BME280;5553;48.506;8.870;2022-08-23T03:30:22;96519.69;;;11.59;100.00
11001;BME280;5553;48.506;8.870;2022-08-23T03:32:51;96514.38;;;11.52;100.00
11001;BME280;5553;48.506;8.870;2022-08-23T03:35:19;96512.75;;;11.58;100.00
11001;BME280;5553;48.506;8.870;2022-08-23T03:37:47;96520.94;;;11.70;100.00
11001;BME280;5553;48.506;8.870;2022-08-23T03:40:20;96520.69;;;11.58;100.00
11001;BME280;5553;48.506;8.870;2022-08-23T03:42:49;96522.72;;;11.56;100.00
11001;BME280;5553;48.506;8.870;2022-08-23T03:45:18;96520.84;;;11.43;100.00
11001;BME280;5553;48.506;8.870;2022-08-23T03:47:46;96531.13;;;11.25;100.00
11001;BME280;5553;48.506;8.870;2022-08-23T03:50:15;96543.88;;;11.21;100.00
11001;BME280;5553;48.506;8.870;2022-08-23T03:52:44;96541.84;;;11.23;100.00
11001;BME280;5553;48.506;8.870;2022-08-23T03:55:12;96554.03;;;11.24;100.00
11001;BME280;5553;48.506;8.870;2022-08-23T03:57:43;96547.19;;;11.30;100.00
11001;BME280;5553;48.506;8.870;2022-08-23T04:00:14;96548.78;;;11.31;100.00
11001;BME280;5553;48.506;8.870;2022-08-23T04:02:43;96550.25;;;11.33;100.00
11001;BME280;5553;48.506;8.870;2022-08-23T04:05:11;96549.44;;;11.33;100.00
11001;BME280;5553;48.506;8.870;2022-08-23T04:07:40;96559.56;;;11.29;100.00
11001;BME280;5553;48.506;8.870;2022-08-23T04:10:09;96556.94;;;11.29;100.00
11001;BME280;5553;48.506;8.870;2022-08-23T04:12:42;96555.13;;;11.36;100.00
11001;BME280;5553;48.506;8.870;2022-08-23T04:15:11;96552.53;;;11.43;100.00
11001;BME280;5553;48.506;8.870;2022-08-23T04:17:39;96556.16;;;11.35;100.00
11001;BME280;5553;48.506;8.870;2022-08-23T04:20:08;96560.38;;;11.30;100.00
11001;BME280;5553;48.506;8.870;2022-08-23T04:22:37;96558.94;;;11.27;100.00
11001;BME280;5553;48.506;8.870;2022-08-23T04:25:06;96561.75;;;11.19;100.00
11001;BME280;5553;48.506;8.870;2022-08-23T04:27:34;96565.84;;;11.22;100.00
11001;BME280;5553;48.506;8.870;2022-08-23T04:30:06;96558.09;;;11.20;100.00
11001;BME280;5553;48.506;8.870;2022-08-23T04:32:34;96553.94;;;11.04;100.00
11001;BME280;5553;48.506;8.870;2022-08-23T04:35:04;96564.72;;;11.09;100.00
11001;BME280;5553;48.506;8.870;2022-08-23T04:37:33;96571.28;;;11.20;100.00
11001;BME280;5553;48.506;8.870;2022-08-23T04:40:02;96576.22;;;11.30;100.00
11001;BME280;5553;48.506;8.870;2022-08-23T04:42:43;96575.84;;;11.33;100.00
11001;BME280;5553;48.506;8.870;2022-08-23T04:45:15;96569.41;;;11.42;100.00
11001;BME280;5553;48.506;8.870;2022-08-23T04:47:43;96580.56;;;11.44;100.00
11001;BME280;5553;48.506;8.870;2022-08-23T04:50:12;96574.44;;;11.37;100.00
11001;BME280;5553;48.506;8.870;2022-08-23T04:52:41;96587.31;;;11.47;100.00
11001;BME280;5553;48.506;8.870;2022-08-23T04:55:09;96593.22;;;11.49;100.00
11001;BME280;5553;48.506;8.870;2022-08-23T04:57:38;96580.84;;;11.56;100.00
11001;BME280;5553;48.506;8.870;2022-08-23T05:00:09;96590.41;;;11.57;100.00
11001;BME280;5553;48.506;8.870;2022-08-23T05:02:42;96587.97;;;11.62;100.00
11001;BME280;5553;48.506;8.870;2022-08-23T05:05:11;96580.69;;;11.64;100.00
11001;BME280;5553;48.506;8.870;2022-08-23T05:07:40;96583.72;;;11.61;100.00
11001;BME280;5553;48.506;8.870;2022-08-23T05:10:10;96595.34;;;11.67;100.00
11001;BME280;5553;48.506;8.870;2022-08-23T05:12:39;96597.72;;;11.61;100.00
11001;BME280;5553;48.506;8.870;2022-08-23T05:15:09;96599.19;;;11.64;100.00
11001;BME280;5553;48.506;8.870;2022-08-23T05:17:37;96600.59;;;11.60;100.00
11001;BME280;5553;48.506;8.870;2022-08-23T05:20:09;96602.44;;;11.66;100.00
11001;BME280;5553;48.506;8.870;2022-08-23T05:22:40;96610.00;;;11.76;100.00
11001;BME280;5553;48.506;8.870;2022-08-23T05:25:09;96602.50;;;11.79;100.00
11001;BME280;5553;48.506;8.870;2022-08-23T05:27:37;96613.75;;;11.88;100.00
11001;BME280;5553;48.506;8.870;2022-08-23T05:30:07;96604.03;;;11.95;100.00
11001;BME280;5553;48.506;8.870;2022-08-23T05:32:35;96602.44;;;12.01;100.00
11001;BME280;5553;48.506;8.870;2022-08-23T05:35:04;96606.91;;;12.00;100.00
11001;BME280;5553;48.506;8.870;2022-08-23T05:37:35;96608.56;;;12.15;100.00
11001;BME280;5553;48.506;8.870;2022-08-23T05:40:05;96608.19;;;12.24;100.00
11001;BME280;5553;48.506;8.870;2022-08-23T05:42:33;96604.59;;;12.45;100.00
11001;BME280;5553;48.506;8.870;2022-08-23T05:45:03;96605.84;;;12.69;100.00
11001;BME280;5553;48.506;8.870;2022-08-23T05:47:32;96591.19;;;12.87;100.00
11001;BME280;5553;48.506;8.870;2022-08-23T05:50:00;96591.19;;;13.00;100.00
11001;BME280;5553;48.506;8.870;2022-08-23T05:52:28;96583.44;;;13.12;100.00
11001;BME280;5553;48.506;8.870;2022-08-23T05:54:59;96581.81;;;13.17;100.00
11001;BME280;5553;48.506;8.870;2022-08-23T05:57:28;96582.00;;;13.36;100.00
11001;BME280;5553;48.506;8.870;2022-08-23T05:59:56;96577.72;;;13.41;100.00
11001;BME280;5553;48.506;8.870;2022-08-23T06:02:24;96577.25;;;13.64;100.00
11001;BME280;5553;48.506;8.870;2022-08-23T06:04:52;96577.38;;;13.83;100.00
11001;BME280;5553;48.506;8.870;2022-08-23T06:07:21;96576.13;;;13.92;100.00
11001;BME280;5553;48.506;8.870;2022-08-23T06:09:49;96574.00;;;14.07;100.00
11001;BME280;5553;48.506;8.870;2022-08-23T06:12:21;96580.88;;;14.21;100.00
11001;BME280;5553;48.506;8.870;2022-08-23T06:14:50;96578.91;;;14.42;100.00
11001;BME280;5553;48.506;8.870;2022-08-23T06:17:18;96580.25;;;14.64;100.00
11001;BME280;5553;48.506;8.870;2022-08-23T06:19:46;96569.28;;;14.79;100.00
11001;BME280;5553;48.506;8.870;2022-08-23T06:22:15;96568.06;;;14.82;100.00
11001;BME280;5553;48.506;8.870;2022-08-23T06:37:29;96571.66;;;15.93;100.00
11001;BME280;5553;48.506;8.870;2022-08-23T06:39:57;96570.66;;;16.24;100.00
11001;BME280;5553;48.506;8.870;2022-08-23T06:42:27;96566.59;;;16.51;100.00
11001;BME280;5553;48.506;8.870;2022-08-23T06:44:56;96566.47;;;16.58;96.59
11001;BME280;5553;48.506;8.870;2022-08-23T06:47:24;96568.66;;;16.91;96.74
11001;BME280;5553;48.506;8.870;2022-08-23T06:49:53;96569.25;;;16.93;93.01
11001;BME280;5553;48.506;8.870;2022-08-23T06:52:21;96572.63;;;17.00;89.66
11001;BME280;5553;48.506;8.870;2022-08-23T06:54:52;96577.63;;;17.44;89.32
11001;BME280;5553;48.506;8.870;2022-08-23T06:57:21;96579.69;;;17.53;87.71
11001;BME280;5553;48.506;8.870;2022-08-23T06:59:49;96581.75;;;17.98;87.50
11001;BME280;5553;48.506;8.870;2022-08-23T07:02:17;96580.97;;;18.15;85.40
11001;BME280;5553;48.506;8.870;2022-08-23T07:04:46;96585.88;;;18.35;82.76
11001;BME280;5553;48.506;8.870;2022-08-23T07:07:18;96585.94;;;18.52;82.20
11001;BME280;5553;48.506;8.870;2022-08-23T07:09:46;96584.22;;;18.74;80.90
11001;BME280;5553;48.506;8.870;2022-08-23T07:12:17;96582.00;;;18.71;77.95
11001;BME280;5553;48.506;8.870;2022-08-23T07:14:46;96585.38;;;19.12;77.28
11001;BME280;5553;48.506;8.870;2022-08-23T07:17:14;96584.22;;;19.41;75.74
11001;BME280;5553;48.506;8.870;2022-08-23T07:19:43;96590.00;;;19.55;75.92
11001;BME280;5553;48.506;8.870;2022-08-23T07:22:11;96594.78;;;20.09;76.01
11001;BME280;5553;48.506;8.870;2022-08-23T07:24:40;96596.56;;;20.25;75.29
11001;BME280;5553;48.506;8.870;2022-08-23T07:27:08;96602.75;;;21.07;75.37
11001;BME280;5553;48.506;8.870;2022-08-23T07:29:39;96593.97;;;20.08;71.11
11001;BME280;5553;48.506;8.870;2022-08-23T07:32:08;96599.38;;;20.35;71.17
11001;BME280;5553;48.506;8.870;2022-08-23T07:34:37;96591.72;;;20.71;70.03
11001;BME280;5553;48.506;8.870;2022-08-23T07:37:05;96596.03;;;20.72;69.52
11001;BME280;5553;48.506;8.870;2022-08-23T07:39:33;96603.88;;;20.52;68.54
11001;BME280;5553;48.506;8.870;2022-08-23T07:42:02;96602.19;;;21.74;68.09
11001;BME280;5553;48.506;8.870;2022-08-23T07:44:31;96598.03;;;21.57;65.65
11001;BME280;5553;48.506;8.870;2022-08-23T07:47:02;96598.78;;;21.94;64.09
11001;BME280;5553;48.506;8.870;2022-08-23T07:49:30;96594.84;;;22.12;62.20
11001;BME280;5553;48.506;8.870;2022-08-23T07:51:58;96595.34;;;21.99;61.51
11001;BME280;5553;48.506;8.870;2022-08-23T07:54:27;96589.63;;;21.43;61.10
11001;BME280;5553;48.506;8.870;2022-08-23T07:56:55;96590.19;;;22.76;59.28
11001;BME280;5553;48.506;8.870;2022-08-23T07:59:24;96588.63;;;23.00;58.81
11001;BME280;5553;48.506;8.870;2022-08-23T08:01:54;96587.81;;;23.35;57.69
11001;BME280;5553;48.506;8.870;2022-08-23T08:04:25;96598.31;;;23.32;57.90
11001;BME280;5553;48.506;8.870;2022-08-23T08:06:53;96602.91;;;24.42;55.40
11001;BME280;5553;48.506;8.870;2022-08-23T08:09:23;96592.19;;;24.22;54.30
11001;BME280;5553;48.506;8.870;2022-08-23T08:11:51;96604.56;;;24.23;55.07
11001;BME280;5553;48.506;8.870;2022-08-23T08:14:20;96592.66;;;25.23;52.67
11001;BME280;5553;48.506;8.870;2022-08-23T08:16:48;96596.97;;;24.90;53.23
11001;BME280;5553;48.506;8.870;2022-08-23T08:19:19;96582.03;;;24.58;50.57
11001;BME280;5553;48.506;8.870;2022-08-23T08:21:50;96608.84;;;25.23;52.45
11001;BME280;5553;48.506;8.870;2022-08-23T08:24:18;96601.09;;;25.45;50.91
11001;BME280;5553;48.506;8.870;2022-08-23T08:26:47;96609.91;;;25.56;50.65
11001;BME280;5553;48.506;8.870;2022-08-23T08:29:16;96599.50;;;25.97;48.54
11001;BME280;5553;48.506;8.870;2022-08-23T08:31:45;96614.53;;;25.56;51.17
11001;BME280;5553;48.506;8.870;2022-08-23T08:34:15;96597.13;;;25.67;48.59
11001;BME280;5553;48.506;8.870;2022-08-23T08:36:46;96602.09;;;25.84;47.19
11001;BME280;5553;48.506;8.870;2022-08-23T08:39:20;96584.00;;;25.84;45.86
11001;BME280;5553;48.506;8.870;2022-08-23T08:42:05;96582.56;;;25.63;45.43
11001;BME280;5553;48.506;8.870;2022-08-23T08:44:39;96611.75;;;26.38;46.36
11001;BME280;5553;48.506;8.870;2022-08-23T08:47:15;96577.97;;;25.92;43.84
11001;BME280;5553;48.506;8.870;2022-08-23T08:49:48;96615.34;;;27.28;44.42
11001;BME280;5553;48.506;8.870;2022-08-23T08:52:22;96614.06;;;27.25;44.34
11001;BME280;5553;48.506;8.870;2022-08-23T08:54:59;96616.81;;;28.13;42.80
11001;BME280;5553;48.506;8.870;2022-08-23T08:57:32;96596.00;;;27.67;41.77
11001;BME280;5553;48.506;8.870;2022-08-23T09:00:09;96604.84;;;27.73;42.86
11001;BME280;5553;48.506;8.870;2022-08-23T09:02:39;96618.34;;;28.19;42.59
11001;BME280;5553;48.506;8.870;2022-08-23T09:05:12;96576.50;;;27.51;40.57
11001;BME280;5553;48.506;8.870;2022-08-23T09:07:49;96610.66;;;28.76;40.72
11001;BME280;5553;48.506;8.870;2022-08-23T09:10:41;96615.47;;;28.79;40.84
11001;BME280;5553;48.506;8.870;2022-08-23T09:13:38;96605.44;;;29.02;39.17
11001;BME280;5553;48.506;8.870;2022-08-23T09:16:25;96619.56;;;29.81;38.77
11001;BME280;5553;48.506;8.870;2022-08-23T09:18:58;96569.16;;;27.84;38.25
11001;BME280;5553;48.506;8.870;2022-08-23T09:21:32;96598.09;;;29.48;37.12
11001;BME280;5553;48.506;8.870;2022-08-23T09:24:05;96568.84;;;29.22;36.08
11001;BME280;5553;48.506;8.870;2022-08-23T09:26:36;96584.53;;;29.48;36.29
11001;BME280;5553;48.506;8.870;2022-08-23T09:29:17;96596.16;;;30.02;35.77
11001;BME280;5553;48.506;8.870;2022-08-23T09:31:47;96614.22;;;30.55;36.54
11001;BME280;5553;48.506;8.870;2022-08-23T09:34:19;96598.13;;;30.76;34.51
11001;BME280;5553;48.506;8.870;2022-08-23T09:36:48;96578.25;;;30.67;33.79
11001;BME280;5553;48.506;8.870;2022-08-23T09:39:26;96576.78;;;30.61;34.00
11001;BME280;5553;48.506;8.870;2022-08-23T09:41:57;96554.50;;;30.33;32.53
11001;BME280;5553;48.506;8.870;2022-08-23T09:44:33;96546.72;;;29.60;33.11
11001;BME280;5553;48.506;8.870;2022-08-23T09:47:07;96573.59;;;30.50;33.29
11001;BME280;5553;48.506;8.870;2022-08-23T09:49:37;96600.97;;;30.71;34.86
11001;BME280;5553;48.506;8.870;2022-08-23T09:52:31;96585.63;;;31.19;32.57
11001;BME280;5553;48.506;8.870;2022-08-23T09:55:03;96552.13;;;31.09;30.28
11001;BME280;5553;48.506;8.870;2022-08-23T09:57:34;96558.72;;;30.91;31.11
11001;BME280;5553;48.506;8.870;2022-08-23T10:00:22;96573.09;;;31.17;31.85
11001;BME280;5553;48.506;8.870;2022-08-23T10:02:52;96563.78;;;31.27;30.71
11001;BME280;5553;48.506;8.870;2022-08-23T10:05:29;96593.38;;;32.49;30.83
11001;BME280;5553;48.506;8.870;2022-08-23T10:08:03;96516.09;;;30.34;30.32
11001;BME280;5553;48.506;8.870;2022-08-23T10:10:36;96506.16;;;29.72;31.03
11001;BME280;5553;48.506;8.870;2022-08-23T10:13:13;96571.69;;;30.77;31.52
11001;BME280;5553;48.506;8.870;2022-08-23T10:15:51;96599.06;;;31.24;33.05
11001;BME280;5553;48.506;8.870;2022-08-23T10:18:29;96511.88;;;30.11;30.52
11001;BME280;5553;48.506;8.870;2022-08-23T10:21:04;96553.72;;;31.10;31.22
11001;BME280;5553;48.506;8.870;2022-08-23T10:23:43;96519.34;;;30.88;29.53
11001;BME280;5553;48.506;8.870;2022-08-23T10:26:22;96551.44;;;31.56;30.03
11001;BME280;5553;48.506;8.870;2022-08-23T10:29:02;96540.47;;;31.65;29.36
11001;BME280;5553;48.506;8.870;2022-08-23T10:31:53;96556.97;;;31.77;29.45
11001;BME280;5553;48.506;8.870;2022-08-23T10:34:40;96505.63;;;31.41;28.26
11001;BME280;5553;48.506;8.870;2022-08-23T10:37:23;96556.22;;;32.27;29.07
11001;BME280;5553;48.506;8.870;2022-08-23T10:39:59;96571.03;;;32.26;30.27
11001;BME280;5553;48.506;8.870;2022-08-23T10:42:36;96563.03;;;32.71;28.58
11001;BME280;5553;48.506;8.870;2022-08-23T10:45:15;96539.31;;;32.42;27.62
11001;BME280;5553;48.506;8.870;2022-08-23T10:47:58;96498.31;;;32.00;26.77
11001;BME280;5553;48.506;8.870;2022-08-23T10:50:37;96549.56;;;32.87;27.65
11001;BME280;5553;48.506;8.870;2022-08-23T10:53:11;96516.19;;;32.40;27.49
11001;BME280;5553;48.506;8.870;2022-08-23T10:55:45;96512.44;;;31.55;28.85
11001;BME280;5553;48.506;8.870;2022-08-23T10:58:30;96545.06;;;33.58;26.95
11001;BME280;5553;48.506;8.870;2022-08-23T11:01:02;96536.16;;;33.61;27.18
11001;BME280;5553;48.506;8.870;2022-08-23T11:03:35;96515.63;;;33.09;26.83
11001;BME280;5553;48.506;8.870;2022-08-23T11:06:22;96506.22;;;33.07;26.68
11001;BME280;5553;48.506;8.870;2022-08-23T11:08:58;96532.13;;;33.34;27.59
11001;BME280;5553;48.506;8.870;2022-08-23T11:11:44;96532.81;;;33.43;27.74
11001;BME280;5553;48.506;8.870;2022-08-23T11:14:25;96513.13;;;33.37;26.63
11001;BME280;5553;48.506;8.870;2022-08-23T11:16:59;96526.50;;;33.63;26.73
11001;BME280;5553;48.506;8.870;2022-08-23T11:19:47;96521.16;;;33.91;26.81
11001;BME280;5553;48.506;8.870;2022-08-23T11:22:18;96525.25;;;33.73;28.00
11001;BME280;5553;48.506;8.870;2022-08-23T11:24:51;96537.22;;;33.93;27.52
11001;BME280;5553;48.506;8.870;2022-08-23T11:27:30;96498.38;;;33.30;26.89
11001;BME280;5553;48.506;8.870;2022-08-23T11:33:08;96461.69;;;32.85;26.49
11001;BME280;5553;48.506;8.870;2022-08-23T11:35:43;96522.66;;;33.89;26.76
11001;BME280;5553;48.506;8.870;2022-08-23T11:38:12;96452.84;;;33.21;25.02
11001;BME280;5553;48.506;8.870;2022-08-23T11:40:55;96489.88;;;33.31;26.60
11001;BME280;5553;48.506;8.870;2022-08-23T11:43:36;96477.34;;;33.42;26.05
11001;BME280;5553;48.506;8.870;2022-08-23T11:46:16;96466.28;;;32.93;25.65
11001;BME280;5553;48.506;8.870;2022-08-23T11:48:55;96438.03;;;31.93;26.87
11001;BME280;5553;48.506;8.870;2022-08-23T11:51:28;96448.22;;;32.26;26.44
11001;BME280;5553;48.506;8.870;2022-08-23T11:54:16;96526.63;;;33.79;27.77
11001;BME280;5553;48.506;8.870;2022-08-23T11:57:03;96488.78;;;33.69;25.99
11001;BME280;5553;48.506;8.870;2022-08-23T11:59:47;96469.78;;;33.15;25.19
11001;BME280;5553;48.506;8.870;2022-08-23T12:02:42;96517.75;;;34.19;25.91
11001;BME280;5553;48.506;8.870;2022-08-23T12:05:26;96445.66;;;33.17;24.71
11001;BME280;5553;48.506;8.870;2022-08-23T12:11:16;96525.66;;;34.49;25.71
11001;BME280;5553;48.506;8.870;2022-08-23T12:13:51;96474.81;;;32.92;27.14
11001;BME280;5553;48.506;8.870;2022-08-23T12:16:34;96434.19;;;31.94;27.27
11001;BME280;5553;48.506;8.870;2022-08-23T12:19:08;96448.38;;;32.50;26.49
11001;BME280;5553;48.506;8.870;2022-08-23T12:21:46;96432.00;;;31.79;27.49
11001;BME280;5553;48.506;8.870;2022-08-23T12:24:20;96402.13;;;31.14;26.82
11001;BME280;5553;48.506;8.870;2022-08-23T12:26:57;96472.56;;;33.39;25.53
11001;BME280;5553;48.506;8.870;2022-08-23T12:29:33;96525.41;;;34.66;25.88
11001;BME280;5553;48.506;8.870;2022-08-23T12:32:10;96456.28;;;33.43;25.69
11001;BME280;5553;48.506;8.870;2022-08-23T12:34:55;96472.59;;;33.64;25.56
11001;BME280;5553;48.506;8.870;2022-08-23T12:37:34;96425.50;;;32.43;25.55
11001;BME280;5553;48.506;8.870;2022-08-23T12:40:09;96440.31;;;33.20;24.63
11001;BME280;5553;48.506;8.870;2022-08-23T12:42:39;96463.84;;;33.83;24.54
11001;BME280;5553;48.506;8.870;2022-08-23T12:45:13;96464.63;;;33.71;25.30
11001;BME280;5553;48.506;8.870;2022-08-23T12:47:44;96437.72;;;33.36;24.30
11001;BME280;5553;48.506;8.870;2022-08-23T12:50:21;96469.41;;;33.99;25.04
11001;BME280;5553;48.506;8.870;2022-08-23T12:52:59;96493.06;;;34.56;24.42
11001;BME280;5553;48.506;8.870;2022-08-23T12:55:30;96393.38;;;32.61;24.44
11001;BME280;5553;48.506;8.870;2022-08-23T12:58:00;96477.84;;;34.18;25.27
11001;BME280;5553;48.506;8.870;2022-08-23T13:00:31;96456.31;;;33.92;24.19
11001;BME280;5553;48.506;8.870;2022-08-23T13:03:02;96417.03;;;32.56;25.44
11001;BME280;5553;48.506;8.870;2022-08-23T13:05:36;96428.94;;;32.85;25.73
11001;BME280;5553;48.506;8.870;2022-08-23T13:08:10;96404.78;;;32.75;24.53
11001;BME280;5553;48.506;8.870;2022-08-23T13:10:42;96460.53;;;33.89;24.76
11001;BME280;5553;48.506;8.870;2022-08-23T13:13:13;96412.97;;;32.96;24.63
11001;BME280;5553;48.506;8.870;2022-08-23T13:15:48;96450.06;;;33.79;24.23
11001;BME280;5553;48.506;8.870;2022-08-23T13:18:31;96447.75;;;33.81;24.13
11001;BME280;5553;48.506;8.870;2022-08-23T13:21:22;96424.19;;;33.52;23.93
11001;BME280;5553;48.506;8.870;2022-08-23T13:23:56;96429.84;;;33.22;25.19
11001;BME280;5553;48.506;8.870;2022-08-23T13:26:32;96446.16;;;34.05;24.62
11001;BME280;5553;48.506;8.870;2022-08-23T13:29:07;96443.09;;;33.57;24.91
11001;BME280;5553;48.506;8.870;2022-08-23T13:31:55;96447.63;;;33.41;25.49
11001;BME280;5553;48.506;8.870;2022-08-23T13:34:36;96462.22;;;33.94;25.13
11001;BME280;5553;48.506;8.870;2022-08-23T13:37:14;96452.06;;;33.94;23.89
11001;BME280;5553;48.506;8.870;2022-08-23T13:39:48;96473.72;;;34.12;25.90
11001;BME280;5553;48.506;8.870;2022-08-23T13:42:33;96437.75;;;33.73;24.93
11001;BME280;5553;48.506;8.870;2022-08-23T13:45:11;96401.25;;;32.62;26.00
11001;BME280;5553;48.506;8.870;2022-08-23T13:47:45;96383.97;;;31.66;26.28
11001;BME280;5553;48.506;8.870;2022-08-23T13:50:20;96399.94;;;31.76;26.74
11001;BME280;5553;48.506;8.870;2022-08-23T13:52:50;96454.44;;;33.10;26.17
11001;BME280;5553;48.506;8.870;2022-08-23T13:55:21;96448.63;;;33.36;25.82